createdAt,value
2019-04-20T00:01:03.501Z,5.83
2019-04-20T00:03:37.989Z,6.27
2019-04-20T00:06:04.687Z,5.27
2019-04-20T00:08:37.701Z,6.13
2019-04-20T00:11:15.639Z,5.63
2019-04-20T00:13:48.803Z,5.77
2019-04-20T00:16:08.687Z,6.37
2019-04-20T00:18:43.081Z,5.87
2019-04-20T00:21:29.003Z,5.73
2019-04-20T00:24:07.386Z,5.07
2019-04-20T00:27:04.748Z,5.87
2019-04-20T00:29:21.310Z,5.30
2019-04-20T00:31:49.766Z,6.20
2019-04-20T00:34:15.685Z,6.20
2019-04-20T00:36:39.237Z,6.10
2019-04-20T00:39:11.866Z,5.90
2019-04-20T00:41:51.011Z,5.63
2019-04-20T00:44:20.674Z,6.37
2019-04-20T00:46:56.919Z,5.83
2019-04-20T00:49:35.076Z,5.33
2019-04-20T00:52:15.191Z,6.37
2019-04-20T00:54:18.149Z,5.67
2019-04-20T00:56:47.880Z,6.13
2019-04-20T00:59:31.557Z,5.60
2019-04-20T01:02:10.801Z,5.47
2019-04-20T01:04:41.058Z,5.67
2019-04-20T01:07:11.255Z,6.00
2019-04-20T01:09:30.884Z,5.50
2019-04-20T01:12:04.056Z,6.00
2019-04-20T01:14:40.611Z,4.97
2019-04-20T01:17:11.782Z,6.10
2019-04-20T01:19:34.669Z,5.40
2019-04-20T01:22:07.967Z,6.03
2019-04-20T01:24:40.484Z,5.40
2019-04-20T01:27:25.897Z,5.87
2019-04-20T01:29:45.668Z,5.50
2019-04-20T01:32:22.375Z,5.67
2019-04-20T01:34:52.375Z,5.77
2019-04-20T01:37:25.910Z,5.07
2019-04-20T01:39:49.177Z,5.77
2019-04-20T01:42:15.253Z,6.20
2019-04-20T01:44:48.588Z,6.57
2019-04-20T01:47:17.076Z,5.80
2019-04-20T01:49:53.949Z,6.30
2019-04-20T01:52:26.910Z,5.70
2019-04-20T01:55:15.775Z,6.67
2019-04-20T01:57:54.574Z,5.70
2019-04-20T02:00:23.272Z,6.07
2019-04-20T02:02:56.518Z,6.07
2019-04-20T02:05:27.534Z,6.07
2019-04-20T02:07:54.169Z,5.57
2019-04-20T02:10:33.291Z,6.00
2019-04-20T02:12:59.870Z,6.13
2019-04-20T02:15:32.687Z,5.47
2019-04-20T02:18:07.466Z,5.30
2019-04-20T02:20:51.491Z,5.23
2019-04-20T02:23:14.996Z,5.70
2019-04-20T02:25:31.657Z,6.00
2019-04-20T02:28:19.207Z,6.00
2019-04-20T02:31:15.622Z,5.83
2019-04-20T02:33:42.854Z,6.03
2019-04-20T02:39:05.702Z,5.90
2019-04-20T02:41:17.752Z,6.50
2019-04-20T02:43:57.656Z,6.20
2019-04-20T02:46:17.109Z,5.83
2019-04-20T02:48:52.489Z,5.73
2019-04-20T02:51:23.572Z,5.37
2019-04-20T02:54:02.155Z,6.07
2019-04-20T02:59:13.350Z,6.33
2019-04-20T03:01:29.120Z,6.40
2019-04-20T03:03:44.924Z,6.70
2019-04-20T03:06:22.064Z,6.77
2019-04-20T03:09:04.792Z,7.53
2019-04-20T03:11:42.606Z,6.20
2019-04-20T03:14:08.421Z,6.57
2019-04-20T03:16:32.199Z,6.53
2019-04-20T03:19:02.997Z,6.93
2019-04-20T03:21:47.886Z,7.47
2019-04-20T03:24:21.518Z,6.67
2019-04-20T03:26:40.330Z,5.93
2019-04-20T03:29:35.962Z,5.90
2019-04-20T03:32:40.219Z,6.27
2019-04-20T03:37:17.205Z,6.20
2019-04-20T03:39:37.601Z,6.50
2019-04-20T03:41:54.977Z,7.13
2019-04-20T03:44:26.468Z,5.47
2019-04-20T03:46:59.792Z,5.77
2019-04-20T03:49:52.841Z,5.53
2019-04-20T03:52:27.785Z,5.57
2019-04-20T03:54:54.359Z,6.57
2019-04-20T03:57:40.965Z,6.30
2019-04-20T04:00:24.425Z,7.00
2019-04-20T04:05:30.307Z,7.47
2019-04-20T04:07:46.777Z,6.77
2019-04-20T04:10:24.993Z,7.17
2019-04-20T04:13:18.605Z,7.83
2019-04-20T04:15:55.589Z,7.07
2019-04-20T04:18:29.800Z,7.87
2019-04-20T04:21:00.057Z,7.33
2019-04-20T04:23:40.807Z,7.90
2019-04-20T04:26:12.957Z,8.50
2019-04-20T04:28:43.316Z,7.73
2019-04-20T04:31:16.416Z,7.23
2019-04-20T04:34:04.357Z,8.47
2019-04-20T04:36:17.798Z,9.63
2019-04-20T04:39:08.676Z,8.97
2019-04-20T04:43:53.867Z,9.60
2019-04-20T04:46:07.965Z,9.57
2019-04-20T04:48:42.772Z,9.90
2019-04-20T04:51:15.460Z,9.97
2019-04-20T04:53:52.461Z,10.77
2019-04-20T04:56:17.099Z,9.60
2019-04-20T04:58:43.008Z,11.23
2019-04-20T05:01:20.065Z,9.83
2019-04-20T05:04:11.516Z,9.50
2019-04-20T05:06:31.737Z,9.80
2019-04-20T05:08:53.059Z,9.17
2019-04-20T05:11:19.704Z,7.40
2019-04-20T05:13:56.700Z,8.97
2019-04-20T05:16:43.191Z,9.93
2019-04-20T05:19:13.374Z,7.67
2019-04-20T05:21:49.860Z,7.80
2019-04-20T05:24:28.823Z,7.27
2019-04-20T05:27:08.959Z,7.93
2019-04-20T05:29:24.915Z,7.80
2019-04-20T05:31:55.902Z,7.53
2019-04-20T05:34:45.346Z,7.87
2019-04-20T05:37:20.835Z,8.57
2019-04-20T05:39:47.409Z,8.47
2019-04-20T05:42:17.905Z,8.33
2019-04-20T05:44:50.070Z,7.73
2019-04-20T05:47:18.161Z,8.27
2019-04-20T05:49:45.060Z,7.63
2019-04-20T05:52:36.134Z,8.27
2019-04-20T05:54:58.109Z,9.00
2019-04-20T06:00:01.810Z,8.40
2019-04-20T06:02:27.348Z,8.87
2019-04-20T06:07:34.778Z,7.77
2019-04-20T06:10:06.580Z,7.83
2019-04-20T06:12:36.311Z,7.73
2019-04-20T06:15:15.615Z,7.43
2019-04-20T06:18:10.669Z,7.83
2019-04-20T06:20:41.114Z,7.60
2019-04-20T06:23:42.778Z,7.93
2019-04-20T06:26:26.853Z,7.80
2019-04-20T06:28:40.020Z,7.00
2019-04-20T06:31:18.002Z,7.77
2019-04-20T06:36:49.641Z,7.67
2019-04-20T06:39:20.417Z,8.13
2019-04-20T06:42:08.114Z,7.80
2019-04-20T06:44:30.424Z,6.87
2019-04-20T06:49:28.913Z,7.90
2019-04-20T06:52:14.222Z,7.10
2019-04-20T06:54:36.152Z,7.50
2019-04-20T06:57:05.840Z,7.30
2019-04-20T06:59:43.438Z,7.50
2019-04-20T07:02:17.293Z,6.83
2019-04-20T07:04:48.577Z,6.77
2019-04-20T07:07:17.097Z,7.00
2019-04-20T07:09:58.238Z,7.67
2019-04-20T07:12:14.347Z,6.43
2019-04-20T07:14:37.967Z,7.57
2019-04-20T07:17:34.965Z,6.93
2019-04-20T07:19:56.405Z,7.43
2019-04-20T07:22:39.446Z,7.50
2019-04-20T07:25:07.922Z,6.83
2019-04-20T07:27:41.546Z,7.37
2019-04-20T07:30:12.063Z,7.50
2019-04-20T07:32:49.659Z,6.93
2019-04-20T07:35:14.512Z,7.97
2019-04-20T07:40:20.616Z,7.50
2019-04-20T07:42:55.544Z,7.00
2019-04-20T07:48:04.922Z,7.40
2019-04-20T07:50:25.268Z,6.90
2019-04-20T07:52:51.624Z,6.80
2019-04-20T07:55:40.878Z,6.37
2019-04-20T07:57:58.075Z,6.37
2019-04-20T08:00:51.956Z,6.03
2019-04-20T08:03:29.374Z,5.80
2019-04-20T08:05:50.120Z,6.17
2019-04-20T08:08:28.116Z,6.23
2019-04-20T08:11:02.619Z,6.00
2019-04-20T08:13:40.360Z,5.73
2019-04-20T08:16:06.905Z,6.13
2019-04-20T08:18:40.226Z,6.77
2019-04-20T08:21:08.266Z,6.57
2019-04-20T08:23:39.065Z,5.93
2019-04-20T08:26:00.430Z,6.40
2019-04-20T08:28:35.902Z,6.30
2019-04-20T08:31:33.425Z,6.50
2019-04-20T08:34:33.731Z,5.93
2019-04-20T08:39:48.175Z,5.83
2019-04-20T08:42:00.552Z,6.23
2019-04-20T08:44:48.490Z,7.07
2019-04-20T08:47:16.169Z,5.97
2019-04-20T08:49:47.138Z,6.57
2019-04-20T08:52:34.334Z,6.63
2019-04-20T08:54:34.465Z,6.43
2019-04-20T08:56:55.292Z,6.27
2019-04-20T08:59:23.348Z,6.50
2019-04-20T09:01:53.534Z,6.40
2019-04-20T09:04:36.047Z,6.60
2019-04-20T09:07:06.468Z,6.73
2019-04-20T09:12:14.466Z,6.63
2019-04-20T09:14:30.261Z,6.45
2019-04-20T09:17:08.066Z,6.40
2019-04-20T09:19:46.954Z,6.43
2019-04-20T09:22:32.991Z,6.70
2019-04-20T09:25:36.484Z,6.83
2019-04-20T09:27:35.077Z,6.17
2019-04-20T09:30:09.224Z,7.37
2019-04-20T09:32:56.669Z,6.53
2019-04-20T09:35:36.087Z,7.00
2019-04-20T09:38:12.059Z,6.37
2019-04-20T09:40:43.462Z,6.87
2019-04-20T09:42:57.899Z,6.90
2019-04-20T09:45:38.231Z,6.23
2019-04-20T09:48:07.047Z,6.43
2019-04-20T09:50:55.559Z,6.43
2019-04-20T09:53:22.137Z,6.70
2019-04-20T09:55:56.755Z,6.33
2019-04-20T09:58:21.274Z,7.00
2019-04-20T10:01:02.057Z,6.70
2019-04-20T10:03:18.458Z,6.97
2019-04-20T10:05:49.519Z,5.90
2019-04-20T10:08:19.693Z,6.72
2019-04-20T10:10:51.174Z,6.73
2019-04-20T10:13:21.578Z,6.58
2019-04-20T10:15:51.437Z,6.63
2019-04-20T10:18:21.864Z,6.15
2019-04-20T10:20:51.710Z,6.78
2019-04-20T10:23:22.441Z,6.85
2019-04-20T10:25:52.404Z,6.67
2019-04-20T10:28:23.389Z,6.27
2019-04-20T10:30:53.095Z,6.83
2019-04-20T10:33:23.758Z,6.80
2019-04-20T10:35:53.906Z,7.53
2019-04-20T10:38:31.048Z,6.37
2019-04-20T10:41:08.341Z,7.08
2019-04-20T10:43:30.954Z,6.60
2019-04-20T10:46:00.824Z,7.00
2019-04-20T10:48:33.964Z,6.40
2019-04-20T10:51:03.052Z,6.25
2019-04-20T10:53:32.824Z,6.10
2019-04-20T10:56:03.432Z,6.28
2019-04-20T10:58:33.799Z,6.47
2019-04-20T11:01:03.904Z,6.17
2019-04-20T11:03:34.589Z,6.15
2019-04-20T11:06:04.882Z,6.30
2019-04-20T11:08:34.866Z,6.50
2019-04-20T11:11:13.106Z,6.12
2019-04-20T11:13:37.344Z,6.33
2019-04-20T11:16:08.498Z,6.47
2019-04-20T11:18:39.610Z,6.60
2019-04-20T11:21:09.418Z,6.33
2019-04-20T11:23:40.329Z,6.25
2019-04-20T11:26:10.554Z,6.33
2019-04-20T11:28:40.209Z,6.10
2019-04-20T11:31:10.270Z,6.40
2019-04-20T11:33:40.420Z,6.60
2019-04-20T11:36:10.168Z,6.62
2019-04-20T11:38:40.756Z,6.53
2019-04-20T11:41:18.173Z,6.67
2019-04-20T11:43:42.002Z,5.87
2019-04-20T11:46:12.339Z,5.80
2019-04-20T11:48:43.279Z,6.17
2019-04-20T11:51:13.753Z,6.47
2019-04-20T11:53:43.488Z,5.87
2019-04-20T11:56:18.175Z,5.70
2019-04-20T11:58:44.907Z,6.55
2019-04-20T12:01:39.241Z,5.90
2019-04-20T12:04:20.163Z,5.80
2019-04-20T12:06:34.860Z,6.33
2019-04-20T12:09:09.090Z,6.10
2019-04-20T12:11:53.510Z,6.00
2019-04-20T12:14:10.444Z,5.85
2019-04-20T12:16:40.084Z,6.20
2019-04-20T12:19:10.585Z,6.22
2019-04-20T12:21:40.921Z,6.25
2019-04-20T12:24:12.246Z,6.57
2019-04-20T12:26:42.741Z,6.00
2019-04-20T12:29:12.437Z,5.10
2019-04-20T12:31:44.346Z,5.80
2019-04-20T12:34:16.028Z,6.15
2019-04-20T12:36:46.953Z,5.92
2019-04-20T12:39:17.261Z,6.33
2019-04-20T12:41:52.894Z,5.75
2019-04-20T12:44:19.601Z,5.50
2019-04-20T12:46:49.885Z,5.50
2019-04-20T12:49:19.895Z,5.80
2019-04-20T12:51:54.651Z,6.25
2019-04-20T12:54:20.869Z,5.78
2019-04-20T12:56:50.752Z,5.70
2019-04-20T12:59:21.193Z,5.62
2019-04-20T13:01:51.368Z,5.78
2019-04-20T13:04:22.583Z,6.10
2019-04-20T13:06:55.222Z,6.00
2019-04-20T13:09:28.342Z,5.87
2019-04-20T13:12:05.420Z,5.30
2019-04-20T13:14:56.155Z,5.92
2019-04-20T13:17:26.247Z,5.90
2019-04-20T13:19:57.388Z,5.45
2019-04-20T13:22:27.143Z,5.10
2019-04-20T13:24:57.008Z,5.72
2019-04-20T13:27:27.056Z,5.35
2019-04-20T13:29:56.631Z,5.78
2019-04-20T13:32:27.627Z,5.45
2019-04-20T13:34:58.269Z,5.90
2019-04-20T13:37:28.494Z,5.60
2019-04-20T13:39:58.645Z,5.17
2019-04-20T13:42:30.197Z,5.27
2019-04-20T13:45:01.054Z,5.03
2019-04-20T13:47:30.946Z,5.58
2019-04-20T13:50:01.090Z,5.25
2019-04-20T13:52:31.164Z,5.67
2019-04-20T13:55:00.904Z,5.47
2019-04-20T13:57:49.551Z,5.65
2019-04-20T14:00:37.544Z,5.40
2019-04-20T14:03:12.881Z,5.30
2019-04-20T14:05:42.915Z,5.67
2019-04-20T14:08:17.642Z,6.00
2019-04-20T14:10:47.386Z,5.45
2019-04-20T14:13:20.329Z,5.20
2019-04-20T14:15:49.233Z,5.60
2019-04-20T14:18:19.433Z,5.75
2019-04-20T14:20:50.072Z,5.62
2019-04-20T14:23:21.068Z,5.97
2019-04-20T14:25:51.165Z,5.87
2019-04-20T14:28:21.026Z,5.87
2019-04-20T14:30:51.974Z,5.33
2019-04-20T14:33:22.884Z,5.20
2019-04-20T14:35:52.973Z,5.25
2019-04-20T14:38:22.642Z,5.28
2019-04-20T14:40:52.550Z,5.57
2019-04-20T14:43:22.435Z,5.35
2019-04-20T14:45:52.488Z,5.12
2019-04-20T14:48:22.768Z,5.33
2019-04-20T14:50:53.782Z,5.90
2019-04-20T14:53:23.458Z,5.77
2019-04-20T14:55:53.647Z,5.57
2019-04-20T14:58:43.922Z,5.60
2019-04-20T15:01:32.474Z,5.03
2019-04-20T15:04:08.993Z,5.20
2019-04-20T15:06:37.694Z,7.65
2019-04-20T15:09:08.948Z,5.35
2019-04-20T15:11:41.662Z,5.45
2019-04-20T15:14:11.104Z,5.60
2019-04-20T15:16:40.841Z,5.17
2019-04-20T15:19:11.686Z,6.20
2019-04-20T15:21:47.410Z,6.45
2019-04-20T15:24:17.786Z,6.00
2019-04-20T15:26:48.767Z,5.50
2019-04-20T15:29:18.504Z,5.42
2019-04-20T15:31:48.240Z,6.28
2019-04-20T15:34:19.539Z,5.37
2019-04-20T15:36:49.845Z,5.78
2019-04-20T15:39:19.542Z,5.80
2019-04-20T15:41:49.575Z,5.92
2019-04-20T15:44:19.448Z,6.10
2019-04-20T15:46:49.227Z,5.62
2019-04-20T15:49:19.898Z,6.13
2019-04-20T15:51:50.028Z,6.43
2019-04-20T15:54:19.811Z,6.53
2019-04-20T15:56:56.485Z,6.15
2019-04-20T15:59:22.173Z,5.77
2019-04-20T16:01:53.575Z,6.40
2019-04-20T16:04:43.471Z,6.13
2019-04-20T16:07:15.061Z,5.72
2019-04-20T16:09:46.270Z,6.80
2019-04-20T16:12:17.239Z,6.60
2019-04-20T16:14:47.408Z,7.43
2019-04-20T16:17:17.443Z,6.78
2019-04-20T16:19:55.394Z,6.65
2019-04-20T16:22:21.590Z,6.80
2019-04-20T16:24:53.703Z,6.97
2019-04-20T16:27:29.676Z,7.93
2019-04-20T16:29:59.894Z,7.03
2019-04-20T16:32:30.407Z,6.87
2019-04-20T16:35:00.371Z,7.33
2019-04-20T16:37:30.604Z,6.53
2019-04-20T16:40:00.805Z,7.00
2019-04-20T16:42:32.174Z,7.17
2019-04-20T16:45:03.174Z,7.90
2019-04-20T16:47:34.294Z,8.13
2019-04-20T16:50:06.933Z,8.07
2019-04-20T16:52:36.909Z,8.50
2019-04-20T16:55:08.213Z,7.90
2019-04-20T16:57:39.712Z,7.50
2019-04-20T17:00:11.506Z,8.37
2019-04-20T17:02:42.384Z,9.20
2019-04-20T17:05:13.526Z,9.33
2019-04-20T17:07:45.012Z,10.93
2019-04-20T17:10:17.929Z,12.10
2019-04-20T17:12:48.080Z,13.10
2019-04-20T17:15:19.480Z,13.90
2019-04-20T17:17:50.261Z,13.63
2019-04-20T17:20:21.991Z,14.10
2019-04-20T17:22:52.496Z,14.53
2019-04-20T17:25:22.186Z,21.50
2019-04-20T17:27:54.834Z,42.57
2019-04-20T17:30:45.973Z,45.40
2019-04-20T17:33:25.794Z,42.33
2019-04-20T17:36:03.596Z,27.97
2019-04-20T17:38:34.706Z,15.33
2019-04-20T17:41:14.657Z,22.43
2019-04-20T17:43:37.186Z,14.93
2019-04-20T17:46:10.106Z,15.50
2019-04-20T17:48:43.198Z,13.80
2019-04-20T17:51:23.384Z,95.27
2019-04-20T17:53:49.051Z,83.17
2019-04-20T17:56:12.150Z,62.37
2019-04-20T17:58:41.925Z,129.13
2019-04-20T18:01:34.844Z,88.77
2019-04-20T18:04:37.009Z,83.03
2019-04-20T18:06:50.536Z,86.43
2019-04-20T18:09:34.442Z,69.90
2019-04-20T18:11:46.425Z,61.43
2019-04-20T18:14:30.476Z,39.67
2019-04-20T18:17:13.749Z,33.20
2019-04-20T18:19:39.200Z,31.33
2019-04-20T18:22:11.818Z,30.43
2019-04-20T18:25:02.549Z,27.03
2019-04-20T18:27:37.530Z,30.67
2019-04-20T18:30:01.175Z,35.13
2019-04-20T18:32:21.193Z,42.30
2019-04-20T18:34:59.146Z,46.10
2019-04-20T18:37:28.652Z,34.70
2019-04-20T18:40:03.918Z,36.60
2019-04-20T18:42:36.727Z,78.97
2019-04-20T18:45:17.383Z,71.67
2019-04-20T18:47:49.342Z,70.40
2019-04-20T18:50:16.582Z,52.10
2019-04-20T18:52:37.860Z,45.93
2019-04-20T18:55:17.316Z,111.13
2019-04-20T18:57:41.583Z,118.87
2019-04-20T19:00:19.115Z,134.77
2019-04-20T19:02:52.033Z,103.30
2019-04-20T19:05:17.824Z,130.17
2019-04-20T19:07:57.217Z,149.43
2019-04-20T19:10:27.407Z,143.47
2019-04-20T19:12:59.353Z,114.67
2019-04-20T19:15:50.885Z,116.50
2019-04-20T19:18:18.440Z,66.83
2019-04-20T19:20:55.106Z,67.40
2019-04-20T19:23:25.107Z,108.73
2019-04-20T19:26:04.429Z,88.77
2019-04-20T19:28:31.855Z,105.13
2019-04-20T19:31:11.449Z,103.97
2019-04-20T19:33:52.072Z,106.20
2019-04-20T19:36:15.106Z,73.00
2019-04-20T19:38:46.557Z,74.00
2019-04-20T19:41:21.843Z,63.27
2019-04-20T19:43:49.022Z,63.70
2019-04-20T19:46:42.757Z,53.57
2019-04-20T19:48:49.697Z,52.97
2019-04-20T19:51:32.898Z,53.67
2019-04-20T19:54:09.487Z,50.37
2019-04-20T19:56:32.385Z,52.87
2019-04-20T19:59:01.146Z,60.07
2019-04-20T20:01:17.646Z,63.43
2019-04-20T20:03:55.769Z,55.33
2019-04-20T20:06:29.285Z,54.63
2019-04-20T20:08:55.802Z,52.53
2019-04-20T20:11:29.451Z,54.20
2019-04-20T20:13:55.446Z,53.80
2019-04-20T20:16:33.601Z,56.00
2019-04-20T20:19:05.901Z,59.30
2019-04-20T20:21:41.759Z,58.63
2019-04-20T20:23:59.713Z,58.10
2019-04-20T20:26:34.921Z,57.63
2019-04-20T20:29:14.618Z,57.93
2019-04-20T20:31:48.587Z,56.37
2019-04-20T20:34:14.589Z,60.57
2019-04-20T20:36:43.516Z,59.30
2019-04-20T20:39:19.301Z,60.93
2019-04-20T20:41:53.086Z,61.67
2019-04-20T20:44:26.099Z,60.23
2019-04-20T20:46:55.104Z,55.60
2019-04-20T20:49:32.804Z,57.07
2019-04-20T20:52:08.330Z,56.90
2019-04-20T20:54:35.949Z,55.83
2019-04-20T20:57:00.912Z,58.00
2019-04-20T20:59:35.848Z,65.20
2019-04-20T21:02:05.805Z,66.43
2019-04-20T21:04:24.050Z,66.87
2019-04-20T21:06:54.791Z,68.77
2019-04-20T21:09:25.661Z,68.80
2019-04-20T21:12:00.712Z,71.63
2019-04-20T21:14:31.123Z,74.73
2019-04-20T21:17:04.973Z,74.27
2019-04-20T21:19:50.865Z,72.23
2019-04-20T21:22:08.568Z,73.87
2019-04-20T21:24:39.975Z,74.27
2019-04-20T21:27:14.613Z,73.03
2019-04-20T21:29:47.485Z,70.80
2019-04-20T21:32:16.196Z,72.63
2019-04-20T21:34:51.293Z,76.33
2019-04-20T21:37:19.074Z,73.17
2019-04-20T21:39:55.408Z,71.77
2019-04-20T21:42:21.659Z,67.87
2019-04-20T21:44:51.999Z,68.57
2019-04-20T21:47:23.800Z,71.80
2019-04-20T21:50:08.341Z,69.13
2019-04-20T21:52:32.344Z,67.60
2019-04-20T21:54:56.205Z,67.77
2019-04-20T21:57:26.229Z,63.97
2019-04-20T22:00:08.412Z,66.10
2019-04-20T22:02:33.864Z,65.00
2019-04-20T22:05:01.260Z,65.90
2019-04-20T22:07:32.159Z,63.77
2019-04-20T22:10:02.712Z,62.47
2019-04-20T22:12:38.455Z,65.10
2019-04-20T22:15:15.114Z,64.37
2019-04-20T22:17:39.094Z,65.67
2019-04-20T22:20:20.224Z,68.33
2019-04-20T22:22:57.192Z,61.23
2019-04-20T22:25:28.642Z,61.83
2019-04-20T22:27:44.201Z,61.70
2019-04-20T22:30:14.769Z,64.37
2019-04-20T22:32:49.577Z,66.27
2019-04-20T22:35:17.515Z,62.77
2019-04-20T22:38:08.964Z,62.77
2019-04-20T22:40:36.771Z,64.90
2019-04-20T22:43:06.543Z,62.77
2019-04-20T22:45:42.232Z,66.50
2019-04-20T22:48:11.029Z,66.87
2019-04-20T22:51:02.749Z,65.53
2019-04-20T22:53:25.004Z,61.60
2019-04-20T22:56:02.851Z,64.60
2019-04-20T22:58:28.984Z,70.37
2019-04-20T23:00:52.002Z,69.80
2019-04-20T23:03:16.798Z,88.90
2019-04-20T23:05:46.973Z,68.97
2019-04-20T23:08:17.077Z,60.17
2019-04-20T23:10:48.134Z,69.63
2019-04-20T23:13:21.198Z,54.73
2019-04-20T23:15:55.419Z,65.23
2019-04-20T23:18:22.325Z,65.47
2019-04-20T23:20:56.590Z,64.00
2019-04-20T23:23:27.061Z,56.70
2019-04-20T23:25:54.793Z,69.07
2019-04-20T23:28:24.556Z,50.13
2019-04-20T23:30:59.834Z,54.03
2019-04-20T23:33:25.684Z,52.03
2019-04-20T23:35:59.173Z,56.13
2019-04-20T23:38:26.680Z,61.27
2019-04-20T23:40:57.666Z,57.50
2019-04-20T23:43:33.337Z,57.87
2019-04-20T23:46:23.957Z,63.23
2019-04-20T23:49:13.556Z,65.97
2019-04-20T23:52:02.322Z,63.40
2019-04-20T23:54:17.655Z,56.23
2019-04-20T23:56:41.562Z,55.30
2019-04-20T23:59:12.759Z,55.03
